Agia Marina — SX5375 — position and weather

sailwx.info

Track history (hours):
 
Tides and Currents Weather Stations Pressure Air Temp Water Temp Dewpoint Dewpoint Depression Visibility Wind Speed Wind Dir Waves Ship Positions

Agia Marina

Last reported at 2016-Jul-31 06:33 UTC. Time now 2016-Jul-31 07:24 UTC.
Position N 37°04' E 025°20'.

Length 59 m; draft 2.5 m.

Type: Cargo ship. MMSI: 237042500.

Date/timePositionNaut miles runAvg speedWind from/ knotsBaromVisibWave heightAir tempDewpointWater temp
2016-Jul-31 06:33N 37°04' E 025°20'2 2.3
2016-Jul-31 05:33N 37°06' E 025°22'0 0.4
2016-Jul-31 04:33N 37°06' E 025°22'1 0.9
2016-Jul-31 03:33N 37°06' E 025°21'2 1.9
2016-Jul-31 02:33N 37°04' E 025°20'0 0.0
2016-Jul-31 01:33N 37°04' E 025°20'0 0.0
2016-Jul-31 00:33N 37°04' E 025°20'0 0.0
2016-Jul-30 22:33N 37°04' E 025°20'0 0.0
2016-Jul-30 21:33N 37°04' E 025°20'0 0.0
2016-Jul-30 20:33N 37°04' E 025°20'0 0.0
2016-Jul-30 19:33N 37°04' E 025°20'0 0.0
2016-Jul-30 18:33N 37°04' E 025°20'0 0.0
2016-Jul-30 17:33N 37°04' E 025°20'0 0.0
2016-Jul-30 16:33N 37°04' E 025°20'0 0.0
2016-Jul-30 15:33N 37°04' E 025°20'0 0.0
2016-Jul-30 14:33N 37°04' E 025°20'0 0.0
2016-Jul-30 13:33N 37°04' E 025°20'0 0.0
2016-Jul-30 12:33N 37°04' E 025°20'0 0.0
2016-Jul-30 11:33N 37°04' E 025°20'0 0.0
2016-Jul-30 10:33N 37°04' E 025°20'0 0.0
2016-Jul-30 09:33N 37°04' E 025°20'4 4.4
2016-Jul-30 08:33N 37°00' E 025°22'  
2016-Jul-23 01:10N 37°24' E 024°21'4 6.7
2016-Jul-23 00:33N 37°26' E 024°16'7 6.3
2016-Jul-22 23:22N 37°30' E 024°08'6 6.9
2016-Jul-22 22:32N 37°32' E 024°02'7 6.8
2016-Jul-22 21:33N 37°35' E 023°54'7 7.3
2016-Jul-22 20:33N 37°39' E 023°46'7 6.6
2016-Jul-22 19:33N 37°43' E 023°40'7 6.7
2016-Jul-22 18:33N 37°50' E 023°37'6 6.5
2016-Jul-22 17:33N 37°56' E 023°35'5 5.2
2016-Jul-22 16:33N 38°01' E 023°34'1 1.3
2016-Jul-22 15:33N 38°02' E 023°36'0 0.0
2016-Jul-22 14:33N 38°02' E 023°36'0 0.0
2016-Jul-22 13:33N 38°02' E 023°36'0 0.0
2016-Jul-22 12:33N 38°02' E 023°36'0 0.0
2016-Jul-22 11:33N 38°02' E 023°36'0 0.0
2016-Jul-22 10:33N 38°02' E 023°36'0 0.0
2016-Jul-22 09:33N 38°02' E 023°36'0 0.0
2016-Jul-22 08:33N 38°02' E 023°36'0 0.0
2016-Jul-22 07:33N 38°02' E 023°36'0 0.0
2016-Jul-22 05:33N 38°02' E 023°36'0 0.0
2016-Jul-22 04:33N 38°02' E 023°36'0 0.0
2016-Jul-22 03:33N 38°02' E 023°36'0 0.0
2016-Jul-22 02:33N 38°02' E 023°36'0 0.0
2016-Jul-22 01:33N 38°02' E 023°36'0 0.0
2016-Jul-22 00:34N 38°02' E 023°36'0 0.0
2016-Jul-21 23:34N 38°02' E 023°36'0 0.0
2016-Jul-21 22:33N 38°02' E 023°36'0 0.0
2016-Jul-21 21:34N 38°02' E 023°36'0 0.0
2016-Jul-21 20:33N 38°02' E 023°36'0 0.0
2016-Jul-21 19:34N 38°02' E 023°36'0 0.0
2016-Jul-21 18:33N 38°02' E 023°36'0 0.0
2016-Jul-21 17:33N 38°02' E 023°36'0 0.0
2016-Jul-21 16:33N 38°02' E 023°36'0 0.0
2016-Jul-21 15:34N 38°02' E 023°36'0 0.0
2016-Jul-21 14:33N 38°02' E 023°36'0 0.0
2016-Jul-21 13:33N 38°02' E 023°36'0 0.0
2016-Jul-21 12:34N 38°02' E 023°36'0 0.0
2016-Jul-21 11:33N 38°02' E 023°36'0 0.0
2016-Jul-21 10:33N 38°02' E 023°36'0 0.0
2016-Jul-21 09:34N 38°02' E 023°36'0 0.0
2016-Jul-21 08:33N 38°02' E 023°36'0 0.0
2016-Jul-21 07:33N 38°02' E 023°36'0 0.0
2016-Jul-21 06:33N 38°02' E 023°36'0 0.0
2016-Jul-21 05:33N 38°02' E 023°36'  
Track history (hours):
 
Tides and Currents Weather Stations Pressure Air Temp Water Temp Dewpoint Dewpoint Depression Visibility Wind Speed Wind Dir Waves Ship Positions

Agia Marina

Last reported at 2016-Jul-31 06:33 UTC. Time now 2016-Jul-31 07:24 UTC.
Position N 37°04' E 025°20'.

Length 59 m; draft 2.5 m.

Type: Cargo ship. MMSI: 237042500.

Date/timePositionNaut miles runAvg speedWind from/ knotsBaromVisibWave heightAir tempDewpointWater temp
2016-Jul-31 06:33N 37°04' E 025°20'2 2.3
2016-Jul-31 05:33N 37°06' E 025°22'0 0.4
2016-Jul-31 04:33N 37°06' E 025°22'1 0.9
2016-Jul-31 03:33N 37°06' E 025°21'2 1.9
2016-Jul-31 02:33N 37°04' E 025°20'0 0.0
2016-Jul-31 01:33N 37°04' E 025°20'0 0.0
2016-Jul-31 00:33N 37°04' E 025°20'0 0.0
2016-Jul-30 22:33N 37°04' E 025°20'0 0.0
2016-Jul-30 21:33N 37°04' E 025°20'0 0.0
2016-Jul-30 20:33N 37°04' E 025°20'0 0.0
2016-Jul-30 19:33N 37°04' E 025°20'0 0.0
2016-Jul-30 18:33N 37°04' E 025°20'0 0.0
2016-Jul-30 17:33N 37°04' E 025°20'0 0.0
2016-Jul-30 16:33N 37°04' E 025°20'0 0.0
2016-Jul-30 15:33N 37°04' E 025°20'0 0.0
2016-Jul-30 14:33N 37°04' E 025°20'0 0.0
2016-Jul-30 13:33N 37°04' E 025°20'0 0.0
2016-Jul-30 12:33N 37°04' E 025°20'0 0.0
2016-Jul-30 11:33N 37°04' E 025°20'0 0.0
2016-Jul-30 10:33N 37°04' E 025°20'0 0.0
2016-Jul-30 09:33N 37°04' E 025°20'4 4.4
2016-Jul-30 08:33N 37°00' E 025°22'  
2016-Jul-23 01:10N 37°24' E 024°21'4 6.7
2016-Jul-23 00:33N 37°26' E 024°16'7 6.3
2016-Jul-22 23:22N 37°30' E 024°08'6 6.9
2016-Jul-22 22:32N 37°32' E 024°02'7 6.8
2016-Jul-22 21:33N 37°35' E 023°54'7 7.3
2016-Jul-22 20:33N 37°39' E 023°46'7 6.6
2016-Jul-22 19:33N 37°43' E 023°40'7 6.7
2016-Jul-22 18:33N 37°50' E 023°37'6 6.5
2016-Jul-22 17:33N 37°56' E 023°35'5 5.2
2016-Jul-22 16:33N 38°01' E 023°34'1 1.3
2016-Jul-22 15:33N 38°02' E 023°36'0 0.0
2016-Jul-22 14:33N 38°02' E 023°36'0 0.0
2016-Jul-22 13:33N 38°02' E 023°36'0 0.0
2016-Jul-22 12:33N 38°02' E 023°36'0 0.0
2016-Jul-22 11:33N 38°02' E 023°36'0 0.0
2016-Jul-22 10:33N 38°02' E 023°36'0 0.0
2016-Jul-22 09:33N 38°02' E 023°36'0 0.0
2016-Jul-22 08:33N 38°02' E 023°36'0 0.0
2016-Jul-22 07:33N 38°02' E 023°36'0 0.0
2016-Jul-22 05:33N 38°02' E 023°36'0 0.0
2016-Jul-22 04:33N 38°02' E 023°36'0 0.0
2016-Jul-22 03:33N 38°02' E 023°36'0 0.0
2016-Jul-22 02:33N 38°02' E 023°36'0 0.0
2016-Jul-22 01:33N 38°02' E 023°36'0 0.0
2016-Jul-22 00:34N 38°02' E 023°36'0 0.0
2016-Jul-21 23:34N 38°02' E 023°36'0 0.0
2016-Jul-21 22:33N 38°02' E 023°36'0 0.0
2016-Jul-21 21:34N 38°02' E 023°36'0 0.0
2016-Jul-21 20:33N 38°02' E 023°36'0 0.0
2016-Jul-21 19:34N 38°02' E 023°36'0 0.0
2016-Jul-21 18:33N 38°02' E 023°36'0 0.0
2016-Jul-21 17:33N 38°02' E 023°36'0 0.0
2016-Jul-21 16:33N 38°02' E 023°36'0 0.0
2016-Jul-21 15:34N 38°02' E 023°36'0 0.0
2016-Jul-21 14:33N 38°02' E 023°36'0 0.0
2016-Jul-21 13:33N 38°02' E 023°36'0 0.0
2016-Jul-21 12:34N 38°02' E 023°36'0 0.0
2016-Jul-21 11:33N 38°02' E 023°36'0 0.0
2016-Jul-21 10:33N 38°02' E 023°36'0 0.0
2016-Jul-21 09:34N 38°02' E 023°36'0 0.0
2016-Jul-21 08:33N 38°02' E 023°36'0 0.0
2016-Jul-21 07:33N 38°02' E 023°36'0 0.0
2016-Jul-21 06:33N 38°02' E 023°36'0 0.0
2016-Jul-21 05:33N 38°02' E 023°36'  

Dump ship's entire track history